createdAt,value
2022-10-22T00:02:20.793Z,2.95
2022-10-22T00:05:21.670Z,3.13
2022-10-22T00:08:23.178Z,2.95
2022-10-22T00:11:24.061Z,3.10
2022-10-22T00:14:24.867Z,3.05
2022-10-22T00:17:25.680Z,2.25
2022-10-22T00:20:26.560Z,2.47
2022-10-22T00:23:27.594Z,2.42
2022-10-22T00:26:28.430Z,2.15
2022-10-22T00:29:30.080Z,2.55
2022-10-22T00:32:31.090Z,2.55
2022-10-22T00:35:33.282Z,2.45
2022-10-22T00:38:34.893Z,2.60
2022-10-22T00:41:36.010Z,2.75
2022-10-22T00:45:11.117Z,3.28
2022-10-22T00:48:44.522Z,3.15
2022-10-22T00:51:45.630Z,2.88
2022-10-22T00:54:46.892Z,3.25
2022-10-22T00:57:49.129Z,3.45
2022-10-22T01:00:50.504Z,3.22
2022-10-22T01:03:52.219Z,4.03
2022-10-22T01:06:53.521Z,4.35
2022-10-22T01:10:25.137Z,4.00
2022-10-22T01:13:54.376Z,4.38
2022-10-22T01:17:29.896Z,4.18
2022-10-22T01:20:52.246Z,3.35
2022-10-22T01:24:26.789Z,3.70
2022-10-22T01:28:06.539Z,2.97
2022-10-22T01:31:10.954Z,2.88
2022-10-22T01:34:17.944Z,2.92
2022-10-22T01:37:24.329Z,3.53
2022-10-22T01:40:27.211Z,3.00
2022-10-22T01:43:28.531Z,3.00
2022-10-22T01:46:29.907Z,2.92
2022-10-22T01:50:28.153Z,2.92
2022-10-22T01:53:54.084Z,2.45
2022-10-22T01:57:08.894Z,2.60
2022-10-22T02:00:18.350Z,2.85
2022-10-22T02:03:28.711Z,2.95
2022-10-22T02:06:33.472Z,2.88
2022-10-22T02:09:36.636Z,3.30
2022-10-22T02:12:40.426Z,3.55
2022-10-22T02:15:46.495Z,3.78
2022-10-22T02:18:54.310Z,3.63
2022-10-22T02:21:55.998Z,4.07
2022-10-22T02:24:57.463Z,3.83
2022-10-22T02:28:25.259Z,3.50
2022-10-22T02:31:32.694Z,3.88
2022-10-22T02:37:35.031Z,3.13
2022-10-22T02:40:36.571Z,3.03
2022-10-22T02:43:50.758Z,3.35
2022-10-22T02:46:52.186Z,3.50
2022-10-22T02:49:53.385Z,2.85
2022-10-22T02:52:54.181Z,2.40
2022-10-22T02:55:55.106Z,2.30
2022-10-22T02:58:55.766Z,2.30
2022-10-22T03:01:56.977Z,2.08
2022-10-22T03:04:59.227Z,1.65
2022-10-22T03:08:00.240Z,1.70
2022-10-22T03:11:00.969Z,1.80
2022-10-22T03:14:01.822Z,1.55
2022-10-22T03:17:03.239Z,1.55
2022-10-22T03:20:04.659Z,1.73
2022-10-22T03:23:06.219Z,1.40
2022-10-22T03:26:08.363Z,1.50
2022-10-22T03:29:13.173Z,1.48
2022-10-22T03:32:14.550Z,1.70
2022-10-22T03:35:15.648Z,1.33
2022-10-22T03:38:16.511Z,1.48
2022-10-22T03:41:17.703Z,1.30
2022-10-22T03:44:20.140Z,1.30
2022-10-22T03:47:24.496Z,1.20
2022-10-22T03:50:25.834Z,1.30
2022-10-22T03:53:26.915Z,0.98
2022-10-22T03:56:27.670Z,1.02
2022-10-22T03:59:28.589Z,1.30
2022-10-22T04:02:29.380Z,1.08
2022-10-22T04:05:30.168Z,1.15
2022-10-22T04:08:31.124Z,1.10
2022-10-22T04:11:32.369Z,1.20
2022-10-22T04:14:33.276Z,1.40
2022-10-22T04:17:38.423Z,1.30
2022-10-22T04:20:41.896Z,1.50
2022-10-22T04:23:49.569Z,1.35
2022-10-22T04:29:52.518Z,1.33
2022-10-22T04:32:53.435Z,1.40
2022-10-22T04:35:54.180Z,1.40
2022-10-22T04:39:01.270Z,1.30
2022-10-22T04:42:02.139Z,1.58
2022-10-22T04:45:03.176Z,1.80
2022-10-22T04:48:04.183Z,1.90
2022-10-22T04:51:07.074Z,2.10
2022-10-22T04:54:08.241Z,2.13
2022-10-22T04:57:09.036Z,2.33
2022-10-22T05:00:10.751Z,2.65
2022-10-22T05:03:11.860Z,2.85
2022-10-22T05:06:14.059Z,3.15
2022-10-22T05:09:20.406Z,2.75
2022-10-22T05:12:21.332Z,2.53
2022-10-22T05:15:22.035Z,3.10
2022-10-22T05:18:22.822Z,3.00
2022-10-22T05:21:23.642Z,3.00
2022-10-22T05:24:25.393Z,3.25
2022-10-22T05:27:26.712Z,3.30
2022-10-22T05:30:27.429Z,3.10
2022-10-22T05:33:30.048Z,3.30
2022-10-22T05:36:31.222Z,2.92
2022-10-22T05:39:32.425Z,3.25
2022-10-22T05:42:33.804Z,3.58
2022-10-22T05:45:39.804Z,3.47
2022-10-22T05:48:41.356Z,3.63
2022-10-22T05:51:42.811Z,2.97
2022-10-22T05:54:43.675Z,3.60
2022-10-22T05:57:44.435Z,3.60
2022-10-22T06:00:45.386Z,4.93
2022-10-22T06:03:47.284Z,4.32
2022-10-22T06:06:51.579Z,43.47
2022-10-22T06:09:53.950Z,34.17
2022-10-22T06:12:54.982Z,7.38
2022-10-22T06:15:56.874Z,10.00
2022-10-22T06:19:03.396Z,9.73
2022-10-22T06:22:05.365Z,9.23
2022-10-22T06:25:08.570Z,10.00
2022-10-22T06:28:10.340Z,4.40
2022-10-22T06:31:11.266Z,3.92
2022-10-22T06:34:14.238Z,4.03
2022-10-22T06:37:15.570Z,4.00
2022-10-22T06:40:16.756Z,3.53
2022-10-22T06:43:17.952Z,3.50
2022-10-22T06:46:21.669Z,3.63
2022-10-22T06:49:22.826Z,3.70
2022-10-22T06:52:24.177Z,3.42
2022-10-22T06:55:25.241Z,4.07
2022-10-22T06:58:26.532Z,4.22
2022-10-22T07:01:32.307Z,5.68
2022-10-22T07:04:33.380Z,4.35
2022-10-22T07:07:34.450Z,3.33
2022-10-22T07:10:35.573Z,4.15
2022-10-22T07:13:36.940Z,3.13
2022-10-22T07:16:38.090Z,3.42
2022-10-22T07:19:39.331Z,3.25
2022-10-22T07:22:40.349Z,3.63
2022-10-22T07:25:42.458Z,3.35
2022-10-22T07:28:43.567Z,2.70
2022-10-22T07:31:45.220Z,3.15
2022-10-22T07:34:46.524Z,2.45
2022-10-22T07:37:47.176Z,1.88
2022-10-22T07:40:47.959Z,1.98
2022-10-22T07:43:48.678Z,1.90
2022-10-22T07:46:49.532Z,2.58
2022-10-22T07:49:50.513Z,2.70
2022-10-22T07:52:52.907Z,1.90
2022-10-22T07:55:56.908Z,2.08
2022-10-22T07:58:57.741Z,2.10
2022-10-22T08:01:58.943Z,2.13
2022-10-22T08:05:00.239Z,5.88
2022-10-22T08:08:00.981Z,7.00
2022-10-22T08:11:02.568Z,4.93
2022-10-22T08:14:03.638Z,3.40
2022-10-22T08:17:04.685Z,2.53
2022-10-22T08:20:06.859Z,1.88
2022-10-22T08:23:07.915Z,1.60
2022-10-22T08:26:08.758Z,1.60
2022-10-22T08:29:10.149Z,1.80
2022-10-22T08:32:11.207Z,1.83
2022-10-22T08:35:14.168Z,1.80
2022-10-22T08:38:19.917Z,1.58
2022-10-22T08:41:24.170Z,1.38
2022-10-22T08:44:46.881Z,1.40
2022-10-22T08:47:53.456Z,1.40
2022-10-22T08:50:58.475Z,1.45
2022-10-22T08:54:26.185Z,1.50
2022-10-22T08:57:52.596Z,1.73
2022-10-22T09:01:16.648Z,1.60
2022-10-22T09:04:50.882Z,1.00
2022-10-22T09:07:53.235Z,1.70
2022-10-22T09:11:17.797Z,2.08
2022-10-22T09:14:26.011Z,1.35
2022-10-22T09:18:21.773Z,2.20
2022-10-22T09:21:46.217Z,1.80
2022-10-22T09:25:25.015Z,2.25
2022-10-22T09:28:26.465Z,2.17
2022-10-22T09:31:31.398Z,1.00
2022-10-22T09:34:33.852Z,1.30
2022-10-22T09:37:34.653Z,1.30
2022-10-22T09:40:52.983Z,1.33
2022-10-22T09:43:53.927Z,2.65
2022-10-22T09:46:55.069Z,2.72
2022-10-22T09:50:26.814Z,2.60
2022-10-22T09:53:31.943Z,2.72
2022-10-22T09:56:43.450Z,3.00
2022-10-22T09:59:49.497Z,2.70
2022-10-22T10:02:56.729Z,2.40
2022-10-22T10:09:22.926Z,2.03
2022-10-22T10:13:03.059Z,2.47
2022-10-22T10:16:31.213Z,2.22
2022-10-22T10:19:43.702Z,2.42
2022-10-22T10:23:03.905Z,2.38
2022-10-22T10:26:28.155Z,2.05
2022-10-22T10:30:18.289Z,2.25
2022-10-22T10:33:38.698Z,2.38
2022-10-22T10:37:18.432Z,2.30
2022-10-22T10:40:52.879Z,2.17
2022-10-22T10:44:17.725Z,4.13
2022-10-22T10:48:02.158Z,4.63
2022-10-22T10:51:17.088Z,3.58
2022-10-22T10:54:27.751Z,3.13
2022-10-22T10:57:56.800Z,3.78
2022-10-22T11:01:12.846Z,4.60
2022-10-22T11:04:50.739Z,3.38
2022-10-22T11:08:11.423Z,3.45
2022-10-22T11:11:26.936Z,4.35
2022-10-22T11:15:03.384Z,3.97
2022-10-22T11:21:35.043Z,4.38
2022-10-22T11:24:47.763Z,3.95
2022-10-22T11:28:13.145Z,4.13
2022-10-22T11:31:17.376Z,4.43
2022-10-22T11:34:41.924Z,4.10
2022-10-22T11:37:47.388Z,4.47
2022-10-22T11:41:00.477Z,4.43
2022-10-22T11:45:06.118Z,4.15
2022-10-22T11:48:10.295Z,3.50
2022-10-22T11:51:38.852Z,4.15
2022-10-22T11:54:44.631Z,4.38
2022-10-22T11:57:47.936Z,4.88
2022-10-22T12:00:50.153Z,4.13
2022-10-22T12:03:59.846Z,3.30
2022-10-22T12:07:02.627Z,4.03
2022-10-22T12:10:20.239Z,3.67
2022-10-22T12:13:30.387Z,4.13
2022-10-22T12:16:55.562Z,3.78
2022-10-22T12:20:11.776Z,3.45
2022-10-22T12:23:14.345Z,3.78
2022-10-22T12:30:00.516Z,4.32
2022-10-22T12:33:07.289Z,5.10
2022-10-22T12:36:18.787Z,5.22
2022-10-22T12:39:25.678Z,4.90
2022-10-22T12:42:26.384Z,6.57
2022-10-22T12:45:34.306Z,5.88
2022-10-22T12:48:42.086Z,5.00
2022-10-22T12:51:44.327Z,5.07
2022-10-22T12:54:49.210Z,2.25
2022-10-22T12:57:50.226Z,3.88
2022-10-22T13:01:02.399Z,4.47
2022-10-22T13:04:28.611Z,4.13
2022-10-22T13:07:41.475Z,4.97
2022-10-22T13:10:52.414Z,5.18
2022-10-22T13:14:15.880Z,3.60
2022-10-22T13:17:36.847Z,4.88
2022-10-22T13:21:03.135Z,5.00
2022-10-22T13:24:25.375Z,4.80
2022-10-22T13:27:28.525Z,5.13
2022-10-22T13:30:37.128Z,4.05
2022-10-22T13:33:43.192Z,3.33
2022-10-22T13:36:44.237Z,4.78
2022-10-22T13:39:44.943Z,4.10
2022-10-22T13:42:45.920Z,4.47
2022-10-22T13:45:52.097Z,4.18
2022-10-22T13:48:56.300Z,3.08
2022-10-22T13:51:59.229Z,3.20
2022-10-22T13:55:00.219Z,4.88
2022-10-22T13:58:10.881Z,3.58
2022-10-22T14:01:25.938Z,5.18
2022-10-22T14:04:26.931Z,3.85
2022-10-22T14:07:28.108Z,4.72
2022-10-22T14:10:29.072Z,4.97
2022-10-22T14:13:30.292Z,5.45
2022-10-22T14:16:33.370Z,5.10
2022-10-22T14:19:34.597Z,5.97
2022-10-22T14:22:35.523Z,5.20
2022-10-22T14:25:36.591Z,5.38
2022-10-22T14:28:46.123Z,3.95
2022-10-22T14:31:58.786Z,4.82
2022-10-22T14:35:00.093Z,5.20
2022-10-22T14:38:01.266Z,5.50
2022-10-22T14:41:02.235Z,5.10
2022-10-22T14:44:02.958Z,4.72
2022-10-22T14:47:04.275Z,4.07
2022-10-22T14:50:06.872Z,4.53
2022-10-22T14:53:07.435Z,5.05
2022-10-22T14:56:18.836Z,3.88
2022-10-22T14:59:19.719Z,4.40
2022-10-22T15:02:22.132Z,3.53
2022-10-22T15:05:23.311Z,4.05
2022-10-22T15:08:25.513Z,3.90
2022-10-22T15:11:27.054Z,4.43
2022-10-22T15:14:27.790Z,4.85
2022-10-22T15:17:28.635Z,4.20
2022-10-22T15:20:29.464Z,4.90
2022-10-22T15:23:31.125Z,4.72
2022-10-22T15:26:32.124Z,4.45
2022-10-22T15:29:33.663Z,4.95
2022-10-22T15:32:34.783Z,4.72
2022-10-22T15:35:35.586Z,4.72
2022-10-22T15:38:36.890Z,5.65
2022-10-22T15:41:38.417Z,4.97
2022-10-22T15:44:40.709Z,5.70
2022-10-22T15:47:47.623Z,6.35
2022-10-22T15:50:49.243Z,6.15
2022-10-22T15:53:56.213Z,6.40
2022-10-22T15:56:59.716Z,6.35
2022-10-22T16:00:00.591Z,4.93
2022-10-22T16:03:01.384Z,5.05
2022-10-22T16:06:02.699Z,4.75
2022-10-22T16:09:12.556Z,4.72
2022-10-22T16:12:15.344Z,4.20
2022-10-22T16:15:18.207Z,4.30
2022-10-22T16:18:21.578Z,2.22
2022-10-22T16:21:24.486Z,1.90
2022-10-22T16:24:25.707Z,1.95
2022-10-22T16:27:26.561Z,1.60
2022-10-22T16:30:27.395Z,1.80
2022-10-22T16:33:28.506Z,2.17
2022-10-22T16:36:29.463Z,2.22
2022-10-22T16:39:30.305Z,2.08
2022-10-22T16:42:31.030Z,1.90
2022-10-22T16:45:31.803Z,2.00
2022-10-22T16:48:33.990Z,2.47
2022-10-22T16:51:35.781Z,2.38
2022-10-22T16:54:36.949Z,1.90
2022-10-22T16:57:37.794Z,2.40
2022-10-22T17:00:38.635Z,2.40
2022-10-22T17:03:39.992Z,2.08
2022-10-22T17:06:40.956Z,2.47
2022-10-22T17:09:42.597Z,2.13
2022-10-22T17:12:43.957Z,2.10
2022-10-22T17:15:45.069Z,1.80
2022-10-22T17:18:47.463Z,1.90
2022-10-22T17:21:50.232Z,1.85
2022-10-22T17:25:42.845Z,1.90
2022-10-22T17:28:44.388Z,1.80
2022-10-22T17:31:45.325Z,2.35
2022-10-22T17:34:46.511Z,2.10
2022-10-22T17:37:47.666Z,2.22
2022-10-22T17:40:48.755Z,2.10
2022-10-22T17:43:49.970Z,1.85
2022-10-22T17:46:50.990Z,1.65
2022-10-22T17:49:52.333Z,2.08
2022-10-22T17:52:53.393Z,1.85
2022-10-22T17:56:07.186Z,2.00
2022-10-22T17:59:11.647Z,2.70
2022-10-22T18:02:17.900Z,2.42
2022-10-22T18:05:19.090Z,2.50
2022-10-22T18:08:19.929Z,2.35
2022-10-22T18:11:25.222Z,1.83
2022-10-22T18:14:26.055Z,1.85
2022-10-22T18:17:27.706Z,2.05
2022-10-22T18:20:29.013Z,2.67
2022-10-22T18:23:30.086Z,2.45
2022-10-22T18:26:30.858Z,2.17
2022-10-22T18:29:32.075Z,2.40
2022-10-22T18:32:34.361Z,2.47
2022-10-22T18:35:35.745Z,2.47
2022-10-22T18:38:40.423Z,2.10
2022-10-22T18:41:42.301Z,2.17
2022-10-22T18:44:43.510Z,1.60
2022-10-22T18:47:44.180Z,1.67
2022-10-22T18:50:47.187Z,1.77
2022-10-22T18:54:04.589Z,1.65
2022-10-22T18:57:12.247Z,1.60
2022-10-22T19:00:14.357Z,1.80
2022-10-22T19:03:15.414Z,1.77
2022-10-22T19:06:26.346Z,1.80
2022-10-22T19:09:27.289Z,2.00
2022-10-22T19:12:28.025Z,2.17
2022-10-22T19:19:05.837Z,1.88
2022-10-22T19:22:06.745Z,2.30
2022-10-22T19:25:11.873Z,2.20
2022-10-22T19:28:13.115Z,2.45
2022-10-22T19:31:20.242Z,2.13
2022-10-22T19:34:21.642Z,2.85
2022-10-22T19:37:22.735Z,2.72
2022-10-22T19:40:25.974Z,3.55
2022-10-22T19:43:29.252Z,3.53
2022-10-22T19:46:32.699Z,3.50
2022-10-22T19:49:33.911Z,2.92
2022-10-22T19:52:34.573Z,3.50
2022-10-22T19:55:35.346Z,3.38
2022-10-22T19:58:38.158Z,3.65
2022-10-22T20:01:39.463Z,3.47
2022-10-22T20:04:40.620Z,3.70
2022-10-22T20:07:41.525Z,3.90
2022-10-22T20:10:43.078Z,3.67
2022-10-22T20:13:46.682Z,3.28
2022-10-22T20:16:50.781Z,4.15
2022-10-22T20:19:51.600Z,4.38
2022-10-22T20:22:52.754Z,4.20
2022-10-22T20:25:53.501Z,4.35
2022-10-22T20:28:56.779Z,4.90
2022-10-22T20:31:57.797Z,4.97
2022-10-22T20:34:58.478Z,4.57
2022-10-22T20:37:59.253Z,4.68
2022-10-22T20:41:07.336Z,4.93
2022-10-22T20:44:15.640Z,5.50
2022-10-22T20:47:16.674Z,4.57
2022-10-22T20:50:19.096Z,4.30
2022-10-22T20:53:21.206Z,5.20
2022-10-22T20:56:22.740Z,5.50
2022-10-22T20:59:24.616Z,5.95
2022-10-22T21:02:25.904Z,6.18
2022-10-22T21:05:27.103Z,6.57
2022-10-22T21:08:27.836Z,6.72
2022-10-22T21:11:28.655Z,6.35
2022-10-22T21:14:30.325Z,6.20
2022-10-22T21:17:31.317Z,6.13
2022-10-22T21:20:32.222Z,6.07
2022-10-22T21:23:35.095Z,6.25
2022-10-22T21:26:42.373Z,6.78
2022-10-22T21:29:43.254Z,6.25
2022-10-22T21:32:44.627Z,6.72
2022-10-22T21:35:56.888Z,6.38
2022-10-22T21:38:57.817Z,5.97
2022-10-22T21:41:58.526Z,6.10
2022-10-22T21:44:59.319Z,4.82
2022-10-22T21:48:00.465Z,5.95
2022-10-22T21:51:16.848Z,5.60
2022-10-22T21:54:18.435Z,5.30
2022-10-22T21:57:19.306Z,5.13
2022-10-22T22:00:21.222Z,5.07
2022-10-22T22:03:22.512Z,5.68
2022-10-22T22:06:28.379Z,5.50
2022-10-22T22:09:33.342Z,5.78
2022-10-22T22:12:34.110Z,5.55
2022-10-22T22:15:35.327Z,5.18
2022-10-22T22:18:37.929Z,4.43
2022-10-22T22:21:41.008Z,4.20
2022-10-22T22:24:42.081Z,4.22
2022-10-22T22:27:43.434Z,4.22
2022-10-22T22:30:44.862Z,3.78
2022-10-22T22:33:46.120Z,3.35
2022-10-22T22:36:49.466Z,3.65
2022-10-22T22:39:50.285Z,3.95
2022-10-22T22:42:51.167Z,3.42
2022-10-22T22:46:10.538Z,4.75
2022-10-22T22:49:13.381Z,3.50
2022-10-22T22:52:14.554Z,3.78
2022-10-22T22:55:15.944Z,3.40
2022-10-22T22:58:16.816Z,3.55
2022-10-22T23:01:21.501Z,4.70
2022-10-22T23:04:23.908Z,3.97
2022-10-22T23:07:24.801Z,3.00
2022-10-22T23:10:25.764Z,2.70
2022-10-22T23:13:26.414Z,2.80
2022-10-22T23:16:32.281Z,3.28
2022-10-22T23:19:33.182Z,3.53
2022-10-22T23:22:33.993Z,3.03
2022-10-22T23:25:35.129Z,3.42
2022-10-22T23:28:36.018Z,2.92
2022-10-22T23:31:37.024Z,2.85
2022-10-22T23:34:38.465Z,2.88
2022-10-22T23:37:39.724Z,3.00
2022-10-22T23:40:40.717Z,2.60
2022-10-22T23:43:41.594Z,3.42
2022-10-22T23:46:42.564Z,2.80
2022-10-22T23:49:43.569Z,2.40
2022-10-22T23:52:44.780Z,2.63
2022-10-22T23:55:45.770Z,2.83
2022-10-22T23:58:51.945Z,2.72
